createdAt,value
2022-11-17T00:00:02.597Z,6.10
2022-11-17T00:01:02.602Z,6.82
2022-11-17T00:02:02.704Z,6.28
2022-11-17T00:03:02.612Z,6.16
2022-11-17T00:04:02.608Z,5.56
2022-11-17T00:05:02.655Z,5.66
2022-11-17T00:06:02.618Z,5.69
2022-11-17T00:07:02.687Z,5.43
2022-11-17T00:08:02.611Z,5.24
2022-11-17T00:09:02.598Z,5.29
2022-11-17T00:10:02.669Z,5.19
2022-11-17T00:11:02.635Z,5.65
2022-11-17T00:12:02.667Z,5.64
2022-11-17T00:13:02.612Z,5.69
2022-11-17T00:14:02.625Z,5.31
2022-11-17T00:16:02.749Z,5.64
2022-11-17T00:17:02.653Z,5.77
2022-11-17T00:18:02.657Z,6.55
2022-11-17T00:19:02.630Z,6.26
2022-11-17T00:20:02.689Z,6.39
2022-11-17T00:21:02.802Z,5.68
2022-11-17T00:22:02.666Z,5.72
2022-11-17T00:23:02.641Z,5.77
2022-11-17T00:24:02.646Z,6.14
2022-11-17T00:25:02.687Z,5.57
2022-11-17T00:26:02.732Z,6.00
2022-11-17T00:27:02.691Z,5.97
2022-11-17T00:28:02.650Z,5.94
2022-11-17T00:29:02.671Z,5.91
2022-11-17T00:30:02.721Z,6.28
2022-11-17T00:31:02.692Z,6.34
2022-11-17T00:33:02.683Z,6.43
2022-11-17T00:34:02.686Z,5.75
2022-11-17T00:35:02.724Z,5.94
2022-11-17T00:36:02.693Z,6.23
2022-11-17T00:37:02.688Z,5.54
2022-11-17T00:38:02.680Z,5.40
2022-11-17T00:40:02.752Z,5.62
2022-11-17T00:41:02.689Z,5.81
2022-11-17T00:42:02.727Z,5.92
2022-11-17T00:43:02.774Z,5.39
2022-11-17T00:44:02.785Z,4.89
2022-11-17T00:45:02.731Z,5.49
2022-11-17T00:46:02.697Z,4.57
2022-11-17T00:47:02.720Z,4.48
2022-11-17T00:48:02.768Z,4.23
2022-11-17T00:49:02.716Z,4.51
2022-11-17T00:50:02.742Z,4.85
2022-11-17T00:51:02.778Z,5.00
2022-11-17T00:52:02.725Z,5.17
2022-11-17T00:53:02.723Z,4.96
2022-11-17T00:54:02.736Z,4.63
2022-11-17T00:55:02.820Z,5.44
2022-11-17T00:56:02.746Z,5.03
2022-11-17T00:57:02.735Z,5.32
2022-11-17T00:59:02.759Z,4.77
2022-11-17T01:00:02.778Z,5.14
2022-11-17T01:01:02.758Z,5.86
2022-11-17T01:03:02.786Z,5.69
2022-11-17T01:04:03.341Z,4.39
2022-11-17T01:05:02.764Z,5.37
2022-11-17T01:07:02.807Z,4.90
2022-11-17T01:08:02.823Z,4.75
2022-11-17T01:09:02.807Z,4.50
2022-11-17T01:11:02.804Z,4.11
2022-11-17T01:12:02.773Z,4.66
2022-11-17T01:13:02.787Z,5.40
2022-11-17T01:14:02.823Z,4.86
2022-11-17T01:16:02.822Z,4.77
2022-11-17T01:17:02.811Z,3.42
2022-11-17T01:18:02.810Z,3.32
2022-11-17T01:19:02.850Z,3.26
2022-11-17T01:20:02.803Z,4.27
2022-11-17T01:21:02.842Z,4.43
2022-11-17T01:22:02.833Z,3.94
2022-11-17T01:23:02.835Z,4.15
2022-11-17T01:24:02.846Z,3.66
2022-11-17T01:25:02.807Z,2.77
2022-11-17T01:26:02.845Z,2.73
2022-11-17T01:27:02.812Z,2.81
2022-11-17T01:28:02.824Z,3.05
2022-11-17T01:29:02.871Z,2.39
2022-11-17T01:30:02.820Z,2.30
2022-11-17T01:31:02.812Z,2.77
2022-11-17T01:32:02.858Z,2.47
2022-11-17T01:33:02.833Z,2.98
2022-11-17T01:34:02.863Z,2.40
2022-11-17T01:35:02.852Z,2.69
2022-11-17T01:36:02.814Z,2.30
2022-11-17T01:37:02.851Z,2.27
2022-11-17T01:38:02.818Z,2.09
2022-11-17T01:39:02.891Z,2.14
2022-11-17T01:41:02.854Z,2.23
2022-11-17T01:42:02.862Z,2.84
2022-11-17T01:43:02.838Z,2.30
2022-11-17T01:44:02.917Z,2.24
2022-11-17T01:45:02.856Z,2.48
2022-11-17T01:46:02.872Z,2.29
2022-11-17T01:47:02.893Z,2.40
2022-11-17T01:48:02.867Z,2.13
2022-11-17T01:49:02.914Z,2.39
2022-11-17T01:50:02.883Z,2.30
2022-11-17T01:52:02.919Z,2.31
2022-11-17T01:53:02.890Z,2.56
2022-11-17T01:54:02.883Z,2.15
2022-11-17T01:56:02.875Z,2.37
2022-11-17T01:57:02.911Z,1.94
2022-11-17T01:58:02.898Z,2.74
2022-11-17T01:59:02.898Z,2.44
2022-11-17T02:00:02.922Z,2.49
2022-11-17T02:01:02.929Z,3.13
2022-11-17T02:03:02.904Z,2.88
2022-11-17T02:04:02.911Z,2.66
2022-11-17T02:05:02.934Z,3.20
2022-11-17T02:06:02.923Z,2.97
2022-11-17T02:07:02.990Z,2.77
2022-11-17T02:08:02.908Z,2.77
2022-11-17T02:09:02.927Z,3.28
2022-11-17T02:10:02.954Z,2.70
2022-11-17T02:11:02.903Z,2.54
2022-11-17T02:12:02.942Z,2.78
2022-11-17T02:14:02.928Z,3.13
2022-11-17T02:15:02.971Z,2.96
2022-11-17T02:16:02.924Z,3.05
2022-11-17T02:18:02.994Z,3.08
2022-11-17T02:19:02.923Z,3.02
2022-11-17T02:20:03.000Z,3.61
2022-11-17T02:21:02.945Z,3.00
2022-11-17T02:22:02.963Z,3.45
2022-11-17T02:23:02.999Z,3.24
2022-11-17T02:24:02.971Z,3.17
2022-11-17T02:25:02.960Z,3.80
2022-11-17T02:27:02.961Z,3.22
2022-11-17T02:28:03.085Z,3.26
2022-11-17T02:29:02.966Z,3.61
2022-11-17T02:30:02.970Z,3.95
2022-11-17T02:31:03.004Z,3.96
2022-11-17T02:32:02.979Z,4.10
2022-11-17T02:33:03.137Z,3.75
2022-11-17T02:34:02.967Z,3.98
2022-11-17T02:35:02.986Z,4.05
2022-11-17T02:36:03.018Z,3.79
2022-11-17T02:37:03.011Z,4.33
2022-11-17T02:38:02.980Z,3.80
2022-11-17T02:39:02.988Z,4.22
2022-11-17T02:40:03.018Z,4.49
2022-11-17T02:41:03.046Z,4.11
2022-11-17T02:44:03.010Z,4.11
2022-11-17T02:45:03.042Z,4.26
2022-11-17T02:46:03.037Z,3.89
2022-11-17T02:47:03.019Z,4.31
2022-11-17T02:48:03.022Z,3.73
2022-11-17T02:49:03.041Z,4.01
2022-11-17T02:50:03.007Z,3.42
2022-11-17T02:51:03.051Z,4.35
2022-11-17T02:53:03.046Z,4.28
2022-11-17T02:54:03.079Z,4.51
2022-11-17T02:55:03.051Z,4.16
2022-11-17T02:56:03.064Z,4.16
2022-11-17T02:57:03.040Z,4.29
2022-11-17T02:59:03.101Z,4.48
2022-11-17T03:00:03.056Z,4.32
2022-11-17T03:01:03.087Z,4.57
2022-11-17T03:02:03.164Z,4.31
2022-11-17T03:03:03.097Z,4.37
2022-11-17T03:04:03.082Z,4.40
2022-11-17T03:05:03.063Z,4.47
2022-11-17T03:06:03.074Z,3.96
2022-11-17T03:07:03.119Z,3.17
2022-11-17T03:08:03.086Z,4.18
2022-11-17T03:09:03.097Z,3.93
2022-11-17T03:10:03.078Z,4.47
2022-11-17T03:11:03.081Z,3.43
2022-11-17T03:12:03.090Z,4.13
2022-11-17T03:13:03.060Z,4.67
2022-11-17T03:14:03.111Z,3.79
2022-11-17T03:15:03.091Z,3.86
2022-11-17T03:16:03.074Z,3.61
2022-11-17T03:17:03.069Z,3.70
2022-11-17T03:18:03.074Z,3.51
2022-11-17T03:19:03.123Z,3.77
2022-11-17T03:20:03.073Z,3.47
2022-11-17T03:21:03.096Z,3.21
2022-11-17T03:22:03.130Z,2.86
2022-11-17T03:23:03.104Z,2.91
2022-11-17T03:24:03.140Z,2.86
2022-11-17T03:25:03.109Z,3.17
2022-11-17T03:26:03.097Z,3.25
2022-11-17T03:27:03.155Z,3.15
2022-11-17T03:28:03.094Z,3.17
2022-11-17T03:29:03.148Z,2.98
2022-11-17T03:30:03.096Z,3.17
2022-11-17T03:31:03.108Z,2.53
2022-11-17T03:32:03.149Z,3.06
2022-11-17T03:33:03.189Z,2.90
2022-11-17T03:34:03.137Z,3.40
2022-11-17T03:35:03.128Z,2.98
2022-11-17T03:36:03.129Z,3.31
2022-11-17T03:37:03.199Z,2.91
2022-11-17T03:38:03.158Z,3.41
2022-11-17T03:39:03.138Z,2.99
2022-11-17T03:40:03.150Z,2.82
2022-11-17T03:41:03.174Z,2.92
2022-11-17T03:42:03.162Z,3.20
2022-11-17T03:44:03.175Z,3.52
2022-11-17T03:45:03.198Z,3.60
2022-11-17T03:46:03.163Z,3.35
2022-11-17T03:47:03.184Z,3.58
2022-11-17T03:48:03.179Z,3.67
2022-11-17T03:49:03.169Z,3.49
2022-11-17T03:50:03.217Z,3.40
2022-11-17T03:51:03.152Z,2.50
2022-11-17T03:52:03.164Z,3.01
2022-11-17T03:53:03.225Z,2.88
2022-11-17T03:54:03.205Z,2.74
2022-11-17T03:55:03.222Z,2.95
2022-11-17T03:56:03.178Z,2.44
2022-11-17T03:57:03.161Z,2.64
2022-11-17T03:58:03.213Z,2.80
2022-11-17T03:59:03.206Z,3.03
2022-11-17T04:00:03.218Z,2.75
2022-11-17T04:01:03.221Z,2.93
2022-11-17T04:02:03.243Z,2.40
2022-11-17T04:03:03.205Z,2.47
2022-11-17T04:04:03.201Z,2.74
2022-11-17T04:05:03.201Z,2.58
2022-11-17T04:06:03.184Z,2.63
2022-11-17T04:07:03.349Z,2.47
2022-11-17T04:08:03.320Z,2.82
2022-11-17T04:09:03.227Z,2.52
2022-11-17T04:10:03.222Z,2.89
2022-11-17T04:11:03.236Z,2.24
2022-11-17T04:12:03.236Z,2.35
2022-11-17T04:13:03.259Z,2.81
2022-11-17T04:14:03.224Z,2.56
2022-11-17T04:15:03.252Z,3.00
2022-11-17T04:16:03.279Z,3.19
2022-11-17T04:17:03.224Z,2.92
2022-11-17T04:18:03.245Z,3.26
2022-11-17T04:19:03.248Z,2.71
2022-11-17T04:20:03.246Z,3.50
2022-11-17T04:21:03.283Z,3.24
2022-11-17T04:22:03.250Z,3.30
2022-11-17T04:23:03.239Z,3.40
2022-11-17T04:24:03.289Z,3.17
2022-11-17T04:25:03.247Z,2.81
2022-11-17T04:26:03.301Z,2.82
2022-11-17T04:27:03.240Z,2.93
2022-11-17T04:28:03.258Z,2.60
2022-11-17T04:29:03.291Z,2.69
2022-11-17T04:30:03.264Z,3.00
2022-11-17T04:31:03.297Z,3.08
2022-11-17T04:32:03.267Z,3.02
2022-11-17T04:33:03.282Z,3.09
2022-11-17T04:34:03.307Z,2.85
2022-11-17T04:35:03.267Z,2.85
2022-11-17T04:36:03.254Z,2.84
2022-11-17T04:37:08.180Z,3.00
2022-11-17T04:38:03.322Z,2.74
2022-11-17T04:39:03.346Z,2.94
2022-11-17T04:40:03.308Z,2.92
2022-11-17T04:41:03.325Z,2.99
2022-11-17T04:42:03.347Z,2.85
2022-11-17T04:43:03.283Z,2.89
2022-11-17T04:44:03.329Z,3.03
2022-11-17T04:45:03.315Z,3.15
2022-11-17T04:46:03.313Z,3.31
2022-11-17T04:47:03.314Z,2.96
2022-11-17T04:48:03.316Z,2.59
2022-11-17T04:49:03.337Z,2.46
2022-11-17T04:50:03.295Z,2.25
2022-11-17T04:51:03.329Z,2.71
2022-11-17T04:52:03.362Z,2.33
2022-11-17T04:53:03.319Z,2.49
2022-11-17T04:54:03.321Z,2.42
2022-11-17T04:56:03.319Z,1.82
2022-11-17T04:57:03.348Z,1.77
2022-11-17T04:58:03.402Z,1.56
2022-11-17T05:00:03.474Z,1.68
2022-11-17T05:01:03.338Z,1.96
2022-11-17T05:02:06.096Z,1.97
2022-11-17T05:03:03.345Z,2.08
2022-11-17T05:04:03.354Z,1.70
2022-11-17T05:05:03.386Z,1.46
2022-11-17T05:06:03.368Z,1.49
2022-11-17T05:07:03.460Z,1.75
2022-11-17T05:09:03.351Z,1.55
2022-11-17T05:10:03.387Z,1.78
2022-11-17T05:11:03.413Z,1.77
2022-11-17T05:12:03.432Z,1.68
2022-11-17T05:13:03.356Z,1.80
2022-11-17T05:14:03.965Z,1.30
2022-11-17T05:15:03.409Z,1.61
2022-11-17T05:16:03.379Z,1.32
2022-11-17T05:17:08.655Z,1.33
2022-11-17T05:18:03.386Z,1.55
2022-11-17T05:19:03.381Z,1.69
2022-11-17T05:21:03.401Z,1.18
2022-11-17T05:22:03.419Z,1.39
2022-11-17T05:23:06.782Z,1.27
2022-11-17T05:26:03.392Z,1.01
2022-11-17T05:27:03.405Z,1.56
2022-11-17T05:29:03.412Z,1.65
2022-11-17T05:30:03.443Z,1.83
2022-11-17T05:31:03.450Z,1.62
2022-11-17T05:33:03.444Z,1.57
2022-11-17T05:34:03.445Z,1.75
2022-11-17T05:35:03.441Z,1.42
2022-11-17T05:36:03.479Z,1.57
2022-11-17T05:37:03.411Z,1.80
2022-11-17T05:38:03.466Z,1.81
2022-11-17T05:39:03.464Z,2.01
2022-11-17T05:40:03.449Z,2.01
2022-11-17T05:41:03.481Z,2.13
2022-11-17T05:42:03.447Z,2.29
2022-11-17T05:43:03.467Z,1.96
2022-11-17T05:44:03.466Z,2.26
2022-11-17T05:45:03.444Z,2.31
2022-11-17T05:47:03.437Z,1.47
2022-11-17T05:48:03.477Z,2.06
2022-11-17T05:49:03.475Z,1.69
2022-11-17T05:50:03.481Z,1.81
2022-11-17T05:51:03.501Z,1.46
2022-11-17T05:52:03.466Z,1.62
2022-11-17T05:53:03.474Z,1.69
2022-11-17T05:54:03.502Z,1.28
2022-11-17T05:55:03.461Z,1.44
2022-11-17T05:56:03.513Z,1.41
2022-11-17T05:57:03.466Z,1.33
2022-11-17T05:58:03.481Z,1.44
2022-11-17T05:59:03.517Z,1.29
2022-11-17T06:00:03.495Z,1.38
2022-11-17T06:01:03.511Z,1.34
2022-11-17T06:03:03.506Z,1.31
2022-11-17T06:04:03.718Z,2.38
2022-11-17T06:06:03.525Z,1.38
2022-11-17T06:07:03.551Z,1.59
2022-11-17T06:08:03.499Z,1.35
2022-11-17T06:09:03.522Z,1.33
2022-11-17T06:10:03.547Z,1.37
2022-11-17T06:11:03.520Z,1.47
2022-11-17T06:12:06.140Z,1.44
2022-11-17T06:14:03.532Z,1.34
2022-11-17T06:15:03.530Z,1.28
2022-11-17T06:16:03.521Z,1.48
2022-11-17T06:17:03.584Z,1.60
2022-11-17T06:18:03.516Z,1.67
2022-11-17T06:19:03.543Z,1.61
2022-11-17T06:20:03.519Z,1.64
2022-11-17T06:21:03.549Z,1.54
2022-11-17T06:22:12.767Z,1.51
2022-11-17T06:23:03.548Z,1.29
2022-11-17T06:24:03.547Z,1.26
2022-11-17T06:25:03.588Z,1.24
2022-11-17T06:26:03.544Z,1.23
2022-11-17T06:27:03.582Z,1.73
2022-11-17T06:28:03.565Z,1.27
2022-11-17T06:29:03.547Z,2.21
2022-11-17T06:30:03.573Z,2.29
2022-11-17T06:31:03.558Z,2.16
2022-11-17T06:32:03.540Z,1.71
2022-11-17T06:34:03.615Z,2.07
2022-11-17T06:35:03.576Z,1.35
2022-11-17T06:36:03.613Z,1.60
2022-11-17T06:37:03.592Z,1.48
2022-11-17T06:38:03.592Z,1.38
2022-11-17T06:40:03.588Z,1.45
2022-11-17T06:41:07.396Z,1.64
2022-11-17T06:42:03.611Z,2.04
2022-11-17T06:43:03.631Z,1.86
2022-11-17T06:44:03.605Z,1.62
2022-11-17T06:45:03.628Z,1.62
2022-11-17T06:46:03.611Z,1.37
2022-11-17T06:47:03.619Z,1.74
2022-11-17T06:48:03.612Z,1.82
2022-11-17T06:49:03.630Z,2.20
2022-11-17T06:50:03.597Z,2.27
2022-11-17T06:51:03.604Z,1.93
2022-11-17T06:52:03.642Z,2.04
2022-11-17T06:53:03.663Z,1.53
2022-11-17T06:54:03.679Z,1.79
2022-11-17T06:55:03.667Z,1.67
2022-11-17T06:56:03.673Z,1.79
2022-11-17T06:57:03.674Z,2.39
2022-11-17T06:58:03.640Z,2.29
2022-11-17T06:59:03.657Z,1.96
2022-11-17T07:00:03.776Z,1.42
2022-11-17T07:01:03.701Z,1.65
2022-11-17T07:02:03.682Z,1.73
2022-11-17T07:04:03.697Z,2.00
2022-11-17T07:05:03.699Z,1.65
2022-11-17T07:06:03.756Z,1.74
2022-11-17T07:07:03.688Z,1.69
2022-11-17T07:08:03.704Z,1.37
2022-11-17T07:09:03.683Z,1.61
2022-11-17T07:11:03.694Z,1.79
2022-11-17T07:12:03.719Z,1.75
2022-11-17T07:13:03.716Z,2.04
2022-11-17T07:14:03.700Z,1.64
2022-11-17T07:15:03.728Z,2.02
2022-11-17T07:16:03.721Z,2.09
2022-11-17T07:17:03.709Z,1.74
2022-11-17T07:18:03.732Z,2.19
2022-11-17T07:19:03.875Z,1.87
2022-11-17T07:20:03.752Z,2.08
2022-11-17T07:21:03.734Z,1.76
2022-11-17T07:22:03.774Z,1.52
2022-11-17T07:25:03.795Z,2.30
2022-11-17T07:26:03.721Z,3.02
2022-11-17T07:28:03.825Z,1.86
2022-11-17T07:29:03.768Z,1.77
2022-11-17T07:30:03.822Z,1.65
2022-11-17T07:31:03.796Z,2.23
2022-11-17T07:32:03.767Z,1.71
2022-11-17T07:33:03.816Z,2.97
2022-11-17T07:34:03.800Z,2.55
2022-11-17T07:35:03.788Z,2.22
2022-11-17T07:36:03.769Z,2.44
2022-11-17T07:37:03.779Z,2.72
2022-11-17T07:38:03.840Z,2.56
2022-11-17T07:39:03.776Z,2.56
2022-11-17T07:40:03.815Z,3.17
2022-11-17T07:41:03.807Z,3.10
2022-11-17T07:42:03.792Z,2.80
2022-11-17T07:43:03.835Z,3.00
2022-11-17T07:44:03.809Z,3.17
2022-11-17T07:46:03.849Z,2.95
2022-11-17T07:47:03.809Z,3.30
2022-11-17T07:48:03.833Z,2.52
2022-11-17T07:49:03.826Z,2.70
2022-11-17T07:50:03.784Z,2.83
2022-11-17T07:51:03.785Z,2.86
2022-11-17T07:52:03.815Z,3.33
2022-11-17T07:53:03.810Z,2.46
2022-11-17T07:54:03.814Z,2.55
2022-11-17T07:55:03.822Z,2.70
2022-11-17T07:56:03.829Z,2.29
2022-11-17T07:57:03.798Z,3.02
2022-11-17T07:58:03.868Z,2.06
2022-11-17T07:59:03.804Z,2.19
2022-11-17T08:00:03.839Z,2.22
2022-11-17T08:01:03.927Z,2.56
2022-11-17T08:02:03.851Z,1.98
2022-11-17T08:03:03.899Z,2.16
2022-11-17T08:04:03.912Z,2.21
2022-11-17T08:05:03.869Z,2.91
2022-11-17T08:06:03.872Z,2.05
2022-11-17T08:07:03.901Z,1.86
2022-11-17T08:08:03.847Z,2.11
2022-11-17T08:09:03.869Z,2.03
2022-11-17T08:10:03.821Z,1.52
2022-11-17T08:11:03.851Z,1.98
2022-11-17T08:12:03.840Z,1.46
2022-11-17T08:13:03.878Z,1.51
2022-11-17T08:14:03.841Z,1.26
2022-11-17T08:15:03.848Z,1.45
2022-11-17T08:16:03.885Z,1.28
2022-11-17T08:17:03.871Z,0.92
2022-11-17T08:18:03.888Z,1.12
2022-11-17T08:19:03.884Z,0.84
2022-11-17T08:20:03.867Z,0.93
2022-11-17T08:21:03.886Z,1.09
2022-11-17T08:22:03.859Z,0.88
2022-11-17T08:23:03.863Z,1.21
2022-11-17T08:24:03.899Z,0.96
2022-11-17T08:25:03.871Z,1.04
2022-11-17T08:26:03.920Z,0.97
2022-11-17T08:27:03.908Z,0.90
2022-11-17T08:28:03.870Z,0.97
2022-11-17T08:29:03.933Z,0.88
2022-11-17T08:30:03.915Z,1.09
2022-11-17T08:31:03.956Z,0.80
2022-11-17T08:32:03.877Z,0.87
2022-11-17T08:33:03.886Z,1.07
2022-11-17T08:34:03.940Z,0.63
2022-11-17T08:35:03.927Z,0.92
2022-11-17T08:36:03.955Z,1.10
2022-11-17T08:37:03.889Z,0.92
2022-11-17T08:38:03.901Z,1.81
2022-11-17T08:39:03.966Z,1.68
2022-11-17T08:40:03.936Z,1.27
2022-11-17T08:41:03.922Z,1.96
2022-11-17T08:42:03.892Z,1.02
2022-11-17T08:43:03.958Z,1.33
2022-11-17T08:44:03.955Z,2.17
2022-11-17T08:45:03.921Z,1.81
2022-11-17T08:46:03.964Z,1.62
2022-11-17T08:47:03.924Z,1.78
2022-11-17T08:48:03.932Z,2.85
2022-11-17T08:49:03.951Z,3.67
2022-11-17T08:50:03.965Z,4.16
2022-11-17T08:51:03.958Z,4.72
2022-11-17T08:52:04.012Z,3.64
2022-11-17T08:53:03.969Z,3.30
2022-11-17T08:54:03.986Z,3.66
2022-11-17T08:55:03.963Z,2.98
2022-11-17T08:56:03.932Z,3.34
2022-11-17T08:57:04.112Z,2.22
2022-11-17T08:58:03.966Z,2.23
2022-11-17T08:59:03.978Z,1.85
2022-11-17T09:00:03.971Z,1.86
2022-11-17T09:01:05.321Z,1.52
2022-11-17T09:02:04.016Z,1.72
2022-11-17T09:03:03.984Z,1.51
2022-11-17T09:04:03.972Z,2.14
2022-11-17T09:05:03.981Z,1.75
2022-11-17T09:06:03.993Z,2.09
2022-11-17T09:07:04.051Z,1.58
2022-11-17T09:08:29.825Z,2.05
2022-11-17T09:09:04.580Z,2.00
2022-11-17T09:10:04.008Z,1.59
2022-11-17T09:11:03.996Z,1.74
2022-11-17T09:12:04.084Z,1.86
2022-11-17T09:13:04.028Z,1.76
2022-11-17T09:14:04.058Z,2.07
2022-11-17T09:15:03.975Z,1.86
2022-11-17T09:16:04.028Z,1.28
2022-11-17T09:17:04.015Z,1.36
2022-11-17T09:18:04.028Z,1.12
2022-11-17T09:19:04.007Z,1.33
2022-11-17T09:20:04.044Z,1.12
2022-11-17T09:21:04.009Z,1.17
2022-11-17T09:22:04.053Z,0.92
2022-11-17T09:23:04.030Z,0.94
2022-11-17T09:24:04.091Z,1.00
2022-11-17T09:25:07.573Z,1.11
2022-11-17T09:26:04.052Z,0.75
2022-11-17T09:27:04.061Z,1.47
2022-11-17T09:28:04.071Z,1.03
2022-11-17T09:29:04.038Z,1.66
2022-11-17T09:30:04.044Z,0.98
2022-11-17T09:31:04.111Z,1.73
2022-11-17T09:32:04.087Z,1.32
2022-11-17T09:33:04.031Z,1.45
2022-11-17T09:34:05.858Z,1.18
2022-11-17T09:35:04.032Z,1.23
2022-11-17T09:36:04.055Z,1.67
2022-11-17T09:37:04.060Z,0.99
2022-11-17T09:38:04.016Z,1.33
2022-11-17T09:39:04.098Z,1.32
2022-11-17T09:40:04.032Z,1.26
2022-11-17T09:41:04.055Z,1.17
2022-11-17T09:42:04.107Z,1.15
2022-11-17T09:43:04.054Z,1.23
2022-11-17T09:44:04.101Z,1.37
2022-11-17T09:45:04.092Z,1.39
2022-11-17T09:46:07.465Z,1.68
2022-11-17T09:47:04.134Z,1.33
2022-11-17T09:48:33.449Z,1.20
2022-11-17T09:49:04.094Z,1.24
2022-11-17T09:50:04.106Z,1.87
2022-11-17T09:51:04.098Z,1.35
2022-11-17T09:52:04.148Z,1.42
2022-11-17T09:53:04.123Z,1.84
2022-11-17T09:54:04.095Z,2.05
2022-11-17T09:55:04.125Z,2.13
2022-11-17T09:56:04.122Z,2.00
2022-11-17T09:57:04.155Z,2.02
2022-11-17T09:59:04.131Z,1.51
2022-11-17T10:00:04.124Z,3.06
2022-11-17T10:01:04.126Z,2.20
2022-11-17T10:02:04.145Z,1.41
2022-11-17T10:03:04.104Z,1.90
2022-11-17T10:04:04.123Z,1.47
2022-11-17T10:05:04.158Z,1.41
2022-11-17T10:08:04.103Z,2.84
2022-11-17T10:09:04.104Z,2.18
2022-11-17T10:10:04.181Z,2.04
2022-11-17T10:11:04.174Z,1.30
2022-11-17T10:12:04.150Z,1.91
2022-11-17T10:13:04.303Z,2.09
2022-11-17T10:14:04.163Z,1.84
2022-11-17T10:15:04.167Z,2.05
2022-11-17T10:16:04.183Z,2.07
2022-11-17T10:17:04.206Z,2.13
2022-11-17T10:18:04.155Z,1.99
2022-11-17T10:19:04.188Z,2.26
2022-11-17T10:20:04.168Z,1.66
2022-11-17T10:21:04.173Z,1.28
2022-11-17T10:22:04.197Z,1.72
2022-11-17T10:23:04.141Z,1.71
2022-11-17T10:24:04.183Z,1.32
2022-11-17T10:25:04.225Z,1.68
2022-11-17T10:26:04.207Z,1.87
2022-11-17T10:27:04.201Z,2.22
2022-11-17T10:28:04.194Z,2.01
2022-11-17T10:29:08.547Z,1.52
2022-11-17T10:30:04.241Z,1.29
2022-11-17T10:31:04.186Z,1.69
2022-11-17T10:32:04.226Z,1.89
2022-11-17T10:33:04.191Z,1.91
2022-11-17T10:34:04.166Z,1.44
2022-11-17T10:35:04.231Z,1.21
2022-11-17T10:36:04.234Z,0.72
2022-11-17T10:37:04.237Z,1.43
2022-11-17T10:38:04.226Z,0.95
2022-11-17T10:39:04.235Z,1.02
2022-11-17T10:40:04.239Z,1.40
2022-11-17T10:41:04.233Z,1.13
2022-11-17T10:42:04.226Z,1.67
2022-11-17T10:43:04.242Z,1.33
2022-11-17T10:44:04.226Z,1.71
2022-11-17T10:45:04.305Z,1.61
2022-11-17T10:46:04.256Z,1.98
2022-11-17T10:47:04.338Z,1.09
2022-11-17T10:48:04.254Z,1.30
2022-11-17T10:49:04.241Z,1.36
2022-11-17T10:51:04.233Z,1.36
2022-11-17T10:52:04.262Z,1.19
2022-11-17T10:53:06.623Z,1.39
2022-11-17T10:54:04.229Z,1.10
2022-11-17T10:55:04.269Z,1.62
2022-11-17T10:56:04.240Z,1.76
2022-11-17T10:57:04.237Z,1.56
2022-11-17T10:59:04.271Z,1.46
2022-11-17T11:00:04.286Z,1.54
2022-11-17T11:01:04.296Z,1.41
2022-11-17T11:02:04.287Z,1.45
2022-11-17T11:03:04.327Z,1.28
2022-11-17T11:04:04.265Z,1.34
2022-11-17T11:05:04.263Z,1.06
2022-11-17T11:06:04.272Z,1.21
2022-11-17T11:07:04.330Z,1.05
2022-11-17T11:08:04.251Z,0.91
2022-11-17T11:09:04.262Z,1.08
2022-11-17T11:10:04.280Z,1.30
2022-11-17T11:11:04.312Z,0.93
2022-11-17T11:12:04.306Z,0.77
2022-11-17T11:13:04.359Z,1.40
2022-11-17T11:14:04.297Z,0.83
2022-11-17T11:15:04.327Z,0.81
2022-11-17T11:16:04.357Z,1.11
2022-11-17T11:17:04.279Z,0.99
2022-11-17T11:18:04.328Z,1.13
2022-11-17T11:19:04.272Z,1.21
2022-11-17T11:20:04.287Z,1.31
2022-11-17T11:21:04.341Z,1.42
2022-11-17T11:22:04.472Z,1.09
2022-11-17T11:23:04.338Z,1.10
2022-11-17T11:24:04.297Z,1.30
2022-11-17T11:25:04.343Z,1.26
2022-11-17T11:27:04.309Z,1.31
2022-11-17T11:28:04.380Z,0.76
2022-11-17T11:29:04.344Z,0.91
2022-11-17T11:30:04.323Z,1.03
2022-11-17T11:31:04.386Z,0.74
2022-11-17T11:32:04.325Z,1.08
2022-11-17T11:33:04.365Z,0.99
2022-11-17T11:34:04.380Z,1.32
2022-11-17T11:35:04.341Z,0.85
2022-11-17T11:36:04.395Z,0.89
2022-11-17T11:37:04.320Z,1.02
2022-11-17T11:38:04.365Z,0.93
2022-11-17T11:39:04.370Z,1.01
2022-11-17T11:40:04.364Z,1.08
2022-11-17T11:41:04.546Z,0.96
2022-11-17T11:42:07.993Z,0.78
2022-11-17T11:43:04.332Z,1.11
2022-11-17T11:44:04.344Z,1.29
2022-11-17T11:45:04.354Z,1.24
2022-11-17T11:46:04.402Z,1.10
2022-11-17T11:47:04.395Z,0.97
2022-11-17T11:48:04.393Z,1.22
2022-11-17T11:49:04.395Z,1.30
2022-11-17T11:50:04.378Z,1.29
2022-11-17T11:51:04.407Z,1.15
2022-11-17T11:52:04.418Z,1.00
2022-11-17T11:53:04.431Z,1.23
2022-11-17T11:54:04.452Z,0.97
2022-11-17T11:55:04.420Z,1.29
2022-11-17T11:56:04.454Z,1.12
2022-11-17T11:57:04.379Z,1.22
2022-11-17T11:59:04.431Z,1.27
2022-11-17T12:00:05.094Z,1.15
2022-11-17T12:01:04.432Z,1.36
2022-11-17T12:02:04.481Z,1.19
2022-11-17T12:03:04.481Z,1.17
2022-11-17T12:04:04.394Z,1.74
2022-11-17T12:05:04.448Z,1.12
2022-11-17T12:06:04.434Z,1.46
2022-11-17T12:07:04.549Z,0.92
2022-11-17T12:08:10.200Z,1.67
2022-11-17T12:09:04.486Z,2.22
2022-11-17T12:10:04.409Z,1.89
2022-11-17T12:11:04.447Z,1.72
2022-11-17T12:12:04.489Z,1.71
2022-11-17T12:13:04.456Z,2.87
2022-11-17T12:14:04.476Z,1.66
2022-11-17T12:15:04.462Z,1.52
2022-11-17T12:16:04.464Z,2.44
2022-11-17T12:17:04.471Z,1.56
2022-11-17T12:18:04.484Z,1.88
2022-11-17T12:19:04.486Z,1.65
2022-11-17T12:20:10.435Z,2.04
2022-11-17T12:21:04.451Z,1.94
2022-11-17T12:22:04.526Z,1.72
2022-11-17T12:23:04.455Z,1.57
2022-11-17T12:25:04.505Z,1.27
2022-11-17T12:26:04.448Z,1.79
2022-11-17T12:27:04.498Z,2.32
2022-11-17T12:28:04.496Z,1.98
2022-11-17T12:29:04.614Z,2.43
2022-11-17T12:30:04.510Z,1.94
2022-11-17T12:31:09.754Z,1.98
2022-11-17T12:32:04.526Z,2.04
2022-11-17T12:33:04.511Z,1.73
2022-11-17T12:34:04.475Z,1.65
2022-11-17T12:35:04.504Z,1.30
2022-11-17T12:36:04.512Z,1.78
2022-11-17T12:38:04.526Z,1.90
2022-11-17T12:39:04.494Z,0.99
2022-11-17T12:40:04.545Z,1.39
2022-11-17T12:41:04.490Z,1.62
2022-11-17T12:42:04.580Z,1.34
2022-11-17T12:43:04.539Z,1.33
2022-11-17T12:44:04.565Z,1.25
2022-11-17T12:45:04.545Z,0.90
2022-11-17T12:46:04.531Z,1.05
2022-11-17T12:47:04.508Z,1.23
2022-11-17T12:48:32.245Z,1.79
2022-11-17T12:49:04.588Z,1.96
2022-11-17T12:50:04.521Z,1.46
2022-11-17T12:51:05.178Z,1.43
2022-11-17T12:52:04.568Z,1.45
2022-11-17T12:54:04.553Z,1.71
2022-11-17T12:55:04.519Z,1.58
2022-11-17T12:56:04.818Z,1.48
2022-11-17T12:57:04.618Z,1.23
2022-11-17T12:58:09.183Z,1.36
2022-11-17T13:00:04.527Z,1.32
2022-11-17T13:01:04.593Z,1.38
2022-11-17T13:02:04.600Z,1.63
2022-11-17T13:03:04.645Z,1.93
2022-11-17T13:04:04.601Z,1.42
2022-11-17T13:05:04.616Z,1.51
2022-11-17T13:06:28.318Z,1.68
2022-11-17T13:07:04.672Z,1.11
2022-11-17T13:08:04.610Z,1.67
2022-11-17T13:09:04.596Z,1.61
2022-11-17T13:10:04.628Z,2.33
2022-11-17T13:11:04.601Z,1.41
2022-11-17T13:12:04.591Z,1.55
2022-11-17T13:13:04.572Z,1.40
2022-11-17T13:14:04.572Z,1.24
2022-11-17T13:15:04.620Z,1.47
2022-11-17T13:16:04.580Z,2.18
2022-11-17T13:17:04.628Z,1.77
2022-11-17T13:18:04.583Z,2.09
2022-11-17T13:19:04.597Z,2.81
2022-11-17T13:20:04.675Z,2.11
2022-11-17T13:22:04.592Z,1.32
2022-11-17T13:25:04.667Z,1.88
2022-11-17T13:26:04.649Z,2.56
2022-11-17T13:27:04.649Z,1.50
2022-11-17T13:28:05.381Z,2.21
2022-11-17T13:29:04.686Z,2.34
2022-11-17T13:30:04.639Z,2.29
2022-11-17T13:31:04.663Z,1.40
2022-11-17T13:32:04.644Z,1.09
2022-11-17T13:33:04.675Z,1.29
2022-11-17T13:34:04.660Z,0.92
2022-11-17T13:35:04.681Z,0.80
2022-11-17T13:36:04.691Z,0.86
2022-11-17T13:37:04.701Z,0.86
2022-11-17T13:38:04.684Z,0.71
2022-11-17T13:39:04.683Z,2.19
2022-11-17T13:40:04.699Z,2.25
2022-11-17T13:41:04.679Z,1.09
2022-11-17T13:42:04.693Z,1.05
2022-11-17T13:43:04.701Z,1.03
2022-11-17T13:44:04.694Z,1.34
2022-11-17T13:45:04.701Z,1.36
2022-11-17T13:46:04.688Z,1.67
2022-11-17T13:47:04.694Z,1.17
2022-11-17T13:48:04.696Z,1.16
2022-11-17T13:49:04.665Z,1.99
2022-11-17T13:50:04.733Z,1.46
2022-11-17T13:51:04.674Z,1.46
2022-11-17T13:52:04.801Z,1.37
2022-11-17T13:53:04.681Z,1.22
2022-11-17T13:54:04.681Z,1.59
2022-11-17T13:55:04.721Z,1.71
2022-11-17T13:56:04.723Z,1.87
2022-11-17T13:57:04.725Z,2.32
2022-11-17T13:58:04.733Z,1.62
2022-11-17T13:59:04.732Z,1.24
2022-11-17T14:00:04.715Z,0.92
2022-11-17T14:01:04.748Z,0.94
2022-11-17T14:02:04.737Z,1.23
2022-11-17T14:03:04.780Z,1.39
2022-11-17T14:04:04.710Z,1.81
2022-11-17T14:05:04.717Z,1.38
2022-11-17T14:06:04.748Z,1.09
2022-11-17T14:07:04.759Z,0.93
2022-11-17T14:08:04.788Z,1.20
2022-11-17T14:09:04.751Z,1.03
2022-11-17T14:10:11.156Z,0.83
2022-11-17T14:11:04.704Z,1.20
2022-11-17T14:12:04.772Z,1.43